sensor_id;sensor_type;location;lat;lon;timestamp;temperature;humidity
7694;DHT22;3889;48.162;11.510;2023-02-22T00:00:47;4.40;99.90
7694;DHT22;3889;48.162;11.510;2023-02-22T00:03:16;4.30;99.90
7694;DHT22;3889;48.162;11.510;2023-02-22T00:05:52;4.30;99.90
7694;DHT22;3889;48.162;11.510;2023-02-22T00:08:22;4.30;99.90
7694;DHT22;3889;48.162;11.510;2023-02-22T00:10:51;4.40;99.90
7694;DHT22;3889;48.162;11.510;2023-02-22T00:13:19;4.30;99.90
7694;DHT22;3889;48.162;11.510;2023-02-22T00:15:48;4.30;99.90
7694;DHT22;3889;48.162;11.510;2023-02-22T00:18:18;4.30;99.90
7694;DHT22;3889;48.162;11.510;2023-02-22T00:20:45;4.30;99.90
7694;DHT22;3889;48.162;11.510;2023-02-22T00:23:15;4.40;99.90
7694;DHT22;3889;48.162;11.510;2023-02-22T00:25:44;4.30;99.90
7694;DHT22;3889;48.162;11.510;2023-02-22T00:28:14;4.30;99.90
7694;DHT22;3889;48.162;11.510;2023-02-22T00:30:42;4.30;99.90
7694;DHT22;3889;48.162;11.510;2023-02-22T00:33:11;4.10;99.90
7694;DHT22;3889;48.162;11.510;2023-02-22T00:35:39;4.00;99.90
7694;DHT22;3889;48.162;11.510;2023-02-22T00:38:12;4.00;99.90
7694;DHT22;3889;48.162;11.510;2023-02-22T00:40:40;3.90;99.90
7694;DHT22;3889;48.162;11.510;2023-02-22T00:43:08;3.90;99.90
7694;DHT22;3889;48.162;11.510;2023-02-22T00:45:37;3.90;99.90
7694;DHT22;3889;48.162;11.510;2023-02-22T00:48:05;3.90;99.90
7694;DHT22;3889;48.162;11.510;2023-02-22T00:50:34;3.90;99.90
7694;DHT22;3889;48.162;11.510;2023-02-22T00:53:03;3.80;99.90
7694;DHT22;3889;48.162;11.510;2023-02-22T00:55:34;3.80;99.90
7694;DHT22;3889;48.162;11.510;2023-02-22T00:58:03;3.80;99.90
7694;DHT22;3889;48.162;11.510;2023-02-22T01:00:34;3.80;99.90
7694;DHT22;3889;48.162;11.510;2023-02-22T01:03:04;3.80;99.90
7694;DHT22;3889;48.162;11.510;2023-02-22T01:05:33;3.80;99.90
7694;DHT22;3889;48.162;11.510;2023-02-22T01:08:01;3.80;99.90
7694;DHT22;3889;48.162;11.510;2023-02-22T01:10:32;3.90;99.90
7694;DHT22;3889;48.162;11.510;2023-02-22T01:13:01;3.90;99.90
7694;DHT22;3889;48.162;11.510;2023-02-22T01:15:30;3.80;99.90
7694;DHT22;3889;48.162;11.510;2023-02-22T01:17:58;3.90;99.90
7694;DHT22;3889;48.162;11.510;2023-02-22T01:20:28;3.90;99.90
7694;DHT22;3889;48.162;11.510;2023-02-22T01:22:57;3.90;99.90
7694;DHT22;3889;48.162;11.510;2023-02-22T01:25:27;3.90;99.90
7694;DHT22;3889;48.162;11.510;2023-02-22T01:27:56;3.90;99.90
7694;DHT22;3889;48.162;11.510;2023-02-22T01:30:26;3.80;99.90
7694;DHT22;3889;48.162;11.510;2023-02-22T01:32:54;3.80;99.90
7694;DHT22;3889;48.162;11.510;2023-02-22T01:35:25;3.90;99.90
7694;DHT22;3889;48.162;11.510;2023-02-22T01:37:55;3.80;99.90
7694;DHT22;3889;48.162;11.510;2023-02-22T01:40:26;3.90;99.90
7694;DHT22;3889;48.162;11.510;2023-02-22T01:42:56;3.70;99.90
7694;DHT22;3889;48.162;11.510;2023-02-22T01:45:52;3.70;99.90
7694;DHT22;3889;48.162;11.510;2023-02-22T01:48:25;3.60;99.90
7694;DHT22;3889;48.162;11.510;2023-02-22T01:50:57;3.50;99.90
7694;DHT22;3889;48.162;11.510;2023-02-22T01:53:38;3.40;99.90
7694;DHT22;3889;48.162;11.510;2023-02-22T01:56:08;3.40;99.90
7694;DHT22;3889;48.162;11.510;2023-02-22T01:58:38;3.40;99.90
7694;DHT22;3889;48.162;11.510;2023-02-22T02:01:08;3.30;99.90
7694;DHT22;3889;48.162;11.510;2023-02-22T02:03:37;3.40;99.90
7694;DHT22;3889;48.162;11.510;2023-02-22T02:06:08;3.50;99.90
7694;DHT22;3889;48.162;11.510;2023-02-22T02:08:46;3.40;99.90
7694;DHT22;3889;48.162;11.510;2023-02-22T02:11:20;3.40;99.90
7694;DHT22;3889;48.162;11.510;2023-02-22T02:13:51;3.40;99.90
7694;DHT22;3889;48.162;11.510;2023-02-22T02:16:20;3.40;99.90
7694;DHT22;3889;48.162;11.510;2023-02-22T02:18:49;3.40;99.90
7694;DHT22;3889;48.162;11.510;2023-02-22T02:24:31;3.30;99.90
7694;DHT22;3889;48.162;11.510;2023-02-22T02:27:10;3.30;99.90
7694;DHT22;3889;48.162;11.510;2023-02-22T02:30:06;3.30;99.90
7694;DHT22;3889;48.162;11.510;2023-02-22T02:32:46;3.20;99.90
7694;DHT22;3889;48.162;11.510;2023-02-22T02:35:21;3.10;99.90
7694;DHT22;3889;48.162;11.510;2023-02-22T02:37:58;3.20;99.90
7694;DHT22;3889;48.162;11.510;2023-02-22T02:40:32;3.20;99.90
7694;DHT22;3889;48.162;11.510;2023-02-22T02:43:08;3.20;99.90
7694;DHT22;3889;48.162;11.510;2023-02-22T02:45:44;3.20;99.90
7694;DHT22;3889;48.162;11.510;2023-02-22T02:48:16;3.20;99.90
7694;DHT22;3889;48.162;11.510;2023-02-22T02:50:47;3.30;99.90
7694;DHT22;3889;48.162;11.510;2023-02-22T02:53:19;3.30;99.90
7694;DHT22;3889;48.162;11.510;2023-02-22T02:55:48;3.30;99.90
7694;DHT22;3889;48.162;11.510;2023-02-22T02:58:18;3.40;99.90
7694;DHT22;3889;48.162;11.510;2023-02-22T03:00:49;3.30;99.90
7694;DHT22;3889;48.162;11.510;2023-02-22T03:03:45;3.30;99.90
7694;DHT22;3889;48.162;11.510;2023-02-22T03:09:21;3.20;99.90
7694;DHT22;3889;48.162;11.510;2023-02-22T03:11:59;3.20;99.90
7694;DHT22;3889;48.162;11.510;2023-02-22T03:14:38;3.30;99.90
7694;DHT22;3889;48.162;11.510;2023-02-22T03:17:15;3.30;99.90
7694;DHT22;3889;48.162;11.510;2023-02-22T03:19:49;3.40;99.90
7694;DHT22;3889;48.162;11.510;2023-02-22T03:22:22;3.40;99.90
7694;DHT22;3889;48.162;11.510;2023-02-22T03:24:55;3.30;99.90
7694;DHT22;3889;48.162;11.510;2023-02-22T03:27:27;3.30;99.90
7694;DHT22;3889;48.162;11.510;2023-02-22T03:30:02;3.40;99.90
7694;DHT22;3889;48.162;11.510;2023-02-22T03:32:36;3.40;99.90
7694;DHT22;3889;48.162;11.510;2023-02-22T03:35:09;3.30;99.90
7694;DHT22;3889;48.162;11.510;2023-02-22T03:37:40;3.20;99.90
7694;DHT22;3889;48.162;11.510;2023-02-22T03:40:13;3.40;99.90
7694;DHT22;3889;48.162;11.510;2023-02-22T03:42:45;3.40;99.90
7694;DHT22;3889;48.162;11.510;2023-02-22T03:45:16;3.40;99.90
7694;DHT22;3889;48.162;11.510;2023-02-22T03:47:47;3.30;99.90
7694;DHT22;3889;48.162;11.510;2023-02-22T03:50:20;3.40;99.90
7694;DHT22;3889;48.162;11.510;2023-02-22T03:52:51;3.50;99.90
7694;DHT22;3889;48.162;11.510;2023-02-22T03:55:20;3.50;99.90
7694;DHT22;3889;48.162;11.510;2023-02-22T03:57:51;3.40;99.90
7694;DHT22;3889;48.162;11.510;2023-02-22T04:00:23;3.30;99.90
7694;DHT22;3889;48.162;11.510;2023-02-22T04:02:51;3.30;99.90
7694;DHT22;3889;48.162;11.510;2023-02-22T04:05:21;3.30;99.90
7694;DHT22;3889;48.162;11.510;2023-02-22T04:07:50;3.30;99.90
7694;DHT22;3889;48.162;11.510;2023-02-22T04:10:18;3.30;99.90
7694;DHT22;3889;48.162;11.510;2023-02-22T04:12:46;3.30;99.90
7694;DHT22;3889;48.162;11.510;2023-02-22T04:15:16;3.30;99.90
7694;DHT22;3889;48.162;11.510;2023-02-22T04:17:44;3.20;99.90
7694;DHT22;3889;48.162;11.510;2023-02-22T04:20:12;3.20;99.90
7694;DHT22;3889;48.162;11.510;2023-02-22T04:22:42;3.20;99.90
7694;DHT22;3889;48.162;11.510;2023-02-22T04:25:09;3.10;99.90
7694;DHT22;3889;48.162;11.510;2023-02-22T04:27:37;3.20;99.90
7694;DHT22;3889;48.162;11.510;2023-02-22T04:30:06;3.20;99.90
7694;DHT22;3889;48.162;11.510;2023-02-22T04:32:34;3.20;99.90
7694;DHT22;3889;48.162;11.510;2023-02-22T04:35:02;3.10;99.90
7694;DHT22;3889;48.162;11.510;2023-02-22T04:37:30;3.00;99.90
7694;DHT22;3889;48.162;11.510;2023-02-22T04:40:02;2.90;99.90
7694;DHT22;3889;48.162;11.510;2023-02-22T04:42:33;2.80;99.90
7694;DHT22;3889;48.162;11.510;2023-02-22T04:45:01;2.90;99.90
7694;DHT22;3889;48.162;11.510;2023-02-22T04:47:28;3.00;99.90
7694;DHT22;3889;48.162;11.510;2023-02-22T04:49:56;2.90;99.90
7694;DHT22;3889;48.162;11.510;2023-02-22T04:52:26;2.90;99.90
7694;DHT22;3889;48.162;11.510;2023-02-22T04:54:53;2.80;99.90
7694;DHT22;3889;48.162;11.510;2023-02-22T04:57:23;2.80;99.90
7694;DHT22;3889;48.162;11.510;2023-02-22T04:59:50;2.80;99.90
7694;DHT22;3889;48.162;11.510;2023-02-22T05:02:18;2.80;99.90
7694;DHT22;3889;48.162;11.510;2023-02-22T05:04:46;2.80;99.90
7694;DHT22;3889;48.162;11.510;2023-02-22T05:07:14;2.80;99.90
7694;DHT22;3889;48.162;11.510;2023-02-22T05:09:43;2.80;99.90
7694;DHT22;3889;48.162;11.510;2023-02-22T05:12:11;2.80;99.90
7694;DHT22;3889;48.162;11.510;2023-02-22T05:14:40;2.80;99.90
7694;DHT22;3889;48.162;11.510;2023-02-22T05:17:08;2.70;99.90
7694;DHT22;3889;48.162;11.510;2023-02-22T05:19:36;2.70;99.90
7694;DHT22;3889;48.162;11.510;2023-02-22T05:22:04;2.70;99.90
7694;DHT22;3889;48.162;11.510;2023-02-22T05:24:31;2.60;99.90
7694;DHT22;3889;48.162;11.510;2023-02-22T05:27:00;2.60;99.90
7694;DHT22;3889;48.162;11.510;2023-02-22T05:29:28;2.60;99.90
7694;DHT22;3889;48.162;11.510;2023-02-22T05:31:57;2.60;99.90
7694;DHT22;3889;48.162;11.510;2023-02-22T05:34:25;2.50;99.90
7694;DHT22;3889;48.162;11.510;2023-02-22T05:36:53;2.60;99.90
7694;DHT22;3889;48.162;11.510;2023-02-22T05:39:21;2.60;99.90
7694;DHT22;3889;48.162;11.510;2023-02-22T05:41:49;2.70;99.90
7694;DHT22;3889;48.162;11.510;2023-02-22T05:44:16;2.60;99.90
7694;DHT22;3889;48.162;11.510;2023-02-22T05:46:44;2.50;99.90
7694;DHT22;3889;48.162;11.510;2023-02-22T05:49:14;2.50;99.90
7694;DHT22;3889;48.162;11.510;2023-02-22T05:51:42;2.50;99.90
7694;DHT22;3889;48.162;11.510;2023-02-22T05:54:10;2.60;99.90
7694;DHT22;3889;48.162;11.510;2023-02-22T05:56:38;2.50;99.90
7694;DHT22;3889;48.162;11.510;2023-02-22T05:59:05;2.50;99.90
7694;DHT22;3889;48.162;11.510;2023-02-22T06:01:33;2.50;99.90
7694;DHT22;3889;48.162;11.510;2023-02-22T06:04:01;2.50;99.90
7694;DHT22;3889;48.162;11.510;2023-02-22T06:06:30;2.50;99.90
7694;DHT22;3889;48.162;11.510;2023-02-22T06:08:58;2.50;99.90
7694;DHT22;3889;48.162;11.510;2023-02-22T06:11:26;2.40;99.90
7694;DHT22;3889;48.162;11.510;2023-02-22T06:13:54;2.40;99.90
7694;DHT22;3889;48.162;11.510;2023-02-22T06:16:22;2.40;99.90
7694;DHT22;3889;48.162;11.510;2023-02-22T06:18:50;2.50;99.90
7694;DHT22;3889;48.162;11.510;2023-02-22T06:21:18;2.40;99.90
7694;DHT22;3889;48.162;11.510;2023-02-22T06:23:47;2.30;99.90
7694;DHT22;3889;48.162;11.510;2023-02-22T06:26:15;2.30;99.90
7694;DHT22;3889;48.162;11.510;2023-02-22T06:28:43;2.30;99.90
7694;DHT22;3889;48.162;11.510;2023-02-22T06:31:11;2.40;99.90
7694;DHT22;3889;48.162;11.510;2023-02-22T06:33:39;2.60;99.90
7694;DHT22;3889;48.162;11.510;2023-02-22T06:36:08;2.60;99.90
7694;DHT22;3889;48.162;11.510;2023-02-22T06:38:36;2.70;99.90
7694;DHT22;3889;48.162;11.510;2023-02-22T06:41:07;2.70;99.90
7694;DHT22;3889;48.162;11.510;2023-02-22T06:43:35;2.60;99.90
7694;DHT22;3889;48.162;11.510;2023-02-22T06:46:03;2.70;99.90
7694;DHT22;3889;48.162;11.510;2023-02-22T06:48:31;2.70;99.90
7694;DHT22;3889;48.162;11.510;2023-02-22T06:50:59;2.80;99.90
7694;DHT22;3889;48.162;11.510;2023-02-22T06:53:27;2.90;99.90
7694;DHT22;3889;48.162;11.510;2023-02-22T06:55:54;2.90;99.90
7694;DHT22;3889;48.162;11.510;2023-02-22T06:58:25;2.90;99.90
7694;DHT22;3889;48.162;11.510;2023-02-22T07:00:53;3.00;99.90
7694;DHT22;3889;48.162;11.510;2023-02-22T07:03:21;2.90;99.90
7694;DHT22;3889;48.162;11.510;2023-02-22T07:05:49;3.00;99.90
7694;DHT22;3889;48.162;11.510;2023-02-22T07:08:17;3.10;99.90
7694;DHT22;3889;48.162;11.510;2023-02-22T07:10:45;3.10;99.90
7694;DHT22;3889;48.162;11.510;2023-02-22T07:13:14;3.30;99.90
7694;DHT22;3889;48.162;11.510;2023-02-22T07:15:43;3.40;99.90
7694;DHT22;3889;48.162;11.510;2023-02-22T07:18:11;3.40;99.90
7694;DHT22;3889;48.162;11.510;2023-02-22T07:20:39;3.50;99.90
7694;DHT22;3889;48.162;11.510;2023-02-22T07:23:07;3.60;99.90
7694;DHT22;3889;48.162;11.510;2023-02-22T07:25:35;3.70;99.90
7694;DHT22;3889;48.162;11.510;2023-02-22T07:28:03;3.80;99.90
7694;DHT22;3889;48.162;11.510;2023-02-22T07:30:32;3.90;99.90
7694;DHT22;3889;48.162;11.510;2023-02-22T07:33:03;4.00;99.90
7694;DHT22;3889;48.162;11.510;2023-02-22T07:35:33;4.10;99.90
7694;DHT22;3889;48.162;11.510;2023-02-22T07:38:03;4.20;99.90
7694;DHT22;3889;48.162;11.510;2023-02-22T07:40:31;4.30;99.90
7694;DHT22;3889;48.162;11.510;2023-02-22T07:43:01;4.40;99.90
7694;DHT22;3889;48.162;11.510;2023-02-22T07:45:33;4.50;99.90
7694;DHT22;3889;48.162;11.510;2023-02-22T07:48:04;4.70;99.90
7694;DHT22;3889;48.162;11.510;2023-02-22T07:50:34;4.80;99.90
7694;DHT22;3889;48.162;11.510;2023-02-22T07:53:03;4.80;99.90
7694;DHT22;3889;48.162;11.510;2023-02-22T07:55:33;5.00;99.90
7694;DHT22;3889;48.162;11.510;2023-02-22T07:58:05;5.10;99.90
7694;DHT22;3889;48.162;11.510;2023-02-22T08:00:35;5.20;99.90
7694;DHT22;3889;48.162;11.510;2023-02-22T08:03:06;5.30;99.90
7694;DHT22;3889;48.162;11.510;2023-02-22T08:05:36;5.40;99.90
7694;DHT22;3889;48.162;11.510;2023-02-22T08:08:06;5.60;99.90
7694;DHT22;3889;48.162;11.510;2023-02-22T08:10:34;5.70;99.90
7694;DHT22;3889;48.162;11.510;2023-02-22T08:13:03;5.80;99.90
7694;DHT22;3889;48.162;11.510;2023-02-22T08:15:32;5.90;99.90
7694;DHT22;3889;48.162;11.510;2023-02-22T08:18:02;6.10;99.90
7694;DHT22;3889;48.162;11.510;2023-02-22T08:20:32;6.10;99.90
7694;DHT22;3889;48.162;11.510;2023-02-22T08:23:00;6.20;99.90
7694;DHT22;3889;48.162;11.510;2023-02-22T08:25:28;6.40;99.90
7694;DHT22;3889;48.162;11.510;2023-02-22T08:27:57;6.50;99.90
7694;DHT22;3889;48.162;11.510;2023-02-22T08:30:27;6.60;99.90
7694;DHT22;3889;48.162;11.510;2023-02-22T08:32:55;6.70;99.90
7694;DHT22;3889;48.162;11.510;2023-02-22T08:35:24;6.90;99.90
7694;DHT22;3889;48.162;11.510;2023-02-22T08:37:56;7.00;99.90
7694;DHT22;3889;48.162;11.510;2023-02-22T08:40:27;7.10;99.90
7694;DHT22;3889;48.162;11.510;2023-02-22T08:42:55;7.30;99.90
7694;DHT22;3889;48.162;11.510;2023-02-22T08:45:23;7.40;99.90
7694;DHT22;3889;48.162;11.510;2023-02-22T08:47:51;7.40;99.90
7694;DHT22;3889;48.162;11.510;2023-02-22T08:50:21;7.60;99.90
7694;DHT22;3889;48.162;11.510;2023-02-22T08:52:50;7.70;99.90
7694;DHT22;3889;48.162;11.510;2023-02-22T08:55:21;7.80;99.90
7694;DHT22;3889;48.162;11.510;2023-02-22T08:57:49;7.90;99.90
7694;DHT22;3889;48.162;11.510;2023-02-22T09:00:21;8.00;99.90
7694;DHT22;3889;48.162;11.510;2023-02-22T09:02:51;8.10;99.90
7694;DHT22;3889;48.162;11.510;2023-02-22T09:05:19;8.20;99.90
7694;DHT22;3889;48.162;11.510;2023-02-22T09:07:47;8.30;99.90
7694;DHT22;3889;48.162;11.510;2023-02-22T09:10:16;8.40;99.90
7694;DHT22;3889;48.162;11.510;2023-02-22T09:12:46;8.60;99.90
7694;DHT22;3889;48.162;11.510;2023-02-22T09:15:14;8.70;99.90
7694;DHT22;3889;48.162;11.510;2023-02-22T09:17:42;8.80;99.90
7694;DHT22;3889;48.162;11.510;2023-02-22T09:20:10;8.90;99.90
7694;DHT22;3889;48.162;11.510;2023-02-22T09:22:39;9.10;99.90
7694;DHT22;3889;48.162;11.510;2023-02-22T09:25:07;9.20;99.90
7694;DHT22;3889;48.162;11.510;2023-02-22T09:27:43;9.30;99.90
7694;DHT22;3889;48.162;11.510;2023-02-22T09:30:18;9.50;99.90
7694;DHT22;3889;48.162;11.510;2023-02-22T09:32:50;9.60;99.90
7694;DHT22;3889;48.162;11.510;2023-02-22T09:35:19;9.70;99.90
7694;DHT22;3889;48.162;11.510;2023-02-22T09:37:53;9.80;99.90
7694;DHT22;3889;48.162;11.510;2023-02-22T09:40:22;9.90;99.90
7694;DHT22;3889;48.162;11.510;2023-02-22T09:43:07;10.00;99.90
7694;DHT22;3889;48.162;11.510;2023-02-22T09:45:50;10.10;99.90
7694;DHT22;3889;48.162;11.510;2023-02-22T09:48:21;10.20;99.90
7694;DHT22;3889;48.162;11.510;2023-02-22T09:50:52;10.30;99.90
7694;DHT22;3889;48.162;11.510;2023-02-22T09:53:25;10.50;99.90
7694;DHT22;3889;48.162;11.510;2023-02-22T09:55:58;10.60;99.90
7694;DHT22;3889;48.162;11.510;2023-02-22T09:58:31;10.80;99.90
7694;DHT22;3889;48.162;11.510;2023-02-22T10:01:13;10.90;99.90
7694;DHT22;3889;48.162;11.510;2023-02-22T10:03:49;11.00;99.90
7694;DHT22;3889;48.162;11.510;2023-02-22T10:06:20;11.10;99.90
7694;DHT22;3889;48.162;11.510;2023-02-22T10:08:51;11.10;99.90
7694;DHT22;3889;48.162;11.510;2023-02-22T10:11:33;11.20;99.90
7694;DHT22;3889;48.162;11.510;2023-02-22T10:14:18;11.30;99.90
7694;DHT22;3889;48.162;11.510;2023-02-22T10:16:58;11.70;99.90
7694;DHT22;3889;48.162;11.510;2023-02-22T10:19:32;11.90;99.90
7694;DHT22;3889;48.162;11.510;2023-02-22T10:22:15;11.80;99.90
7694;DHT22;3889;48.162;11.510;2023-02-22T10:24:53;12.00;99.90
7694;DHT22;3889;48.162;11.510;2023-02-22T10:27:29;12.10;99.90
7694;DHT22;3889;48.162;11.510;2023-02-22T10:30:01;12.20;99.90
7694;DHT22;3889;48.162;11.510;2023-02-22T10:32:53;12.30;99.90
7694;DHT22;3889;48.162;11.510;2023-02-22T10:35:24;12.50;99.90
7694;DHT22;3889;48.162;11.510;2023-02-22T10:37:55;12.40;99.90
7694;DHT22;3889;48.162;11.510;2023-02-22T10:40:25;12.50;99.90
7694;DHT22;3889;48.162;11.510;2023-02-22T10:43:01;12.60;99.90
7694;DHT22;3889;48.162;11.510;2023-02-22T10:45:31;12.70;99.90
7694;DHT22;3889;48.162;11.510;2023-02-22T10:48:04;12.70;99.90
7694;DHT22;3889;48.162;11.510;2023-02-22T10:50:37;12.70;99.90
7694;DHT22;3889;48.162;11.510;2023-02-22T10:53:06;12.80;99.90
7694;DHT22;3889;48.162;11.510;2023-02-22T10:55:35;12.80;99.90
7694;DHT22;3889;48.162;11.510;2023-02-22T10:58:05;12.90;99.90
7694;DHT22;3889;48.162;11.510;2023-02-22T11:00:36;13.10;99.90
7694;DHT22;3889;48.162;11.510;2023-02-22T11:03:18;13.20;99.90
7694;DHT22;3889;48.162;11.510;2023-02-22T11:05:48;13.30;99.90
7694;DHT22;3889;48.162;11.510;2023-02-22T11:08:24;13.40;99.90
7694;DHT22;3889;48.162;11.510;2023-02-22T11:10:54;13.60;99.90
7694;DHT22;3889;48.162;11.510;2023-02-22T11:13:25;13.70;99.90
7694;DHT22;3889;48.162;11.510;2023-02-22T11:15:54;13.90;99.90
7694;DHT22;3889;48.162;11.510;2023-02-22T11:18:26;14.00;99.90
7694;DHT22;3889;48.162;11.510;2023-02-22T11:21:02;14.10;99.90
7694;DHT22;3889;48.162;11.510;2023-02-22T11:23:31;14.20;99.90
7694;DHT22;3889;48.162;11.510;2023-02-22T11:26:06;14.20;99.90
7694;DHT22;3889;48.162;11.510;2023-02-22T11:28:35;14.20;99.90
7694;DHT22;3889;48.162;11.510;2023-02-22T11:31:13;14.20;99.90
7694;DHT22;3889;48.162;11.510;2023-02-22T11:33:53;14.20;99.90
7694;DHT22;3889;48.162;11.510;2023-02-22T11:36:33;14.30;99.90
7694;DHT22;3889;48.162;11.510;2023-02-22T11:39:04;14.40;99.90
7694;DHT22;3889;48.162;11.510;2023-02-22T11:41:32;14.50;99.90
7694;DHT22;3889;48.162;11.510;2023-02-22T11:44:20;14.60;99.90
7694;DHT22;3889;48.162;11.510;2023-02-22T11:46:50;14.50;99.90
7694;DHT22;3889;48.162;11.510;2023-02-22T11:49:23;14.50;99.90
7694;DHT22;3889;48.162;11.510;2023-02-22T11:52:10;14.50;99.90
7694;DHT22;3889;48.162;11.510;2023-02-22T11:54:59;14.60;99.90
7694;DHT22;3889;48.162;11.510;2023-02-22T11:57:42;14.60;99.90
7694;DHT22;3889;48.162;11.510;2023-02-22T12:00:20;14.70;99.90
7694;DHT22;3889;48.162;11.510;2023-02-22T12:03:01;14.60;99.90
7694;DHT22;3889;48.162;11.510;2023-02-22T12:08:35;14.70;99.90
7694;DHT22;3889;48.162;11.510;2023-02-22T12:11:13;14.70;99.90
7694;DHT22;3889;48.162;11.510;2023-02-22T12:14:05;14.80;99.90
7694;DHT22;3889;48.162;11.510;2023-02-22T12:16:46;14.70;99.90
7694;DHT22;3889;48.162;11.510;2023-02-22T12:19:26;14.90;99.90
7694;DHT22;3889;48.162;11.510;2023-02-22T12:22:01;14.90;99.90
7694;DHT22;3889;48.162;11.510;2023-02-22T12:24:33;15.00;99.90
7694;DHT22;3889;48.162;11.510;2023-02-22T12:27:06;15.10;99.90
7694;DHT22;3889;48.162;11.510;2023-02-22T12:29:40;14.90;99.90
7694;DHT22;3889;48.162;11.510;2023-02-22T12:32:13;14.80;99.90
7694;DHT22;3889;48.162;11.510;2023-02-22T12:34:44;14.80;99.90
7694;DHT22;3889;48.162;11.510;2023-02-22T12:37:20;14.70;99.90
7694;DHT22;3889;48.162;11.510;2023-02-22T12:39:54;14.60;99.90
7694;DHT22;3889;48.162;11.510;2023-02-22T12:42:28;14.50;99.90
7694;DHT22;3889;48.162;11.510;2023-02-22T12:45:00;14.60;99.90
7694;DHT22;3889;48.162;11.510;2023-02-22T12:47:39;14.70;99.90
7694;DHT22;3889;48.162;11.510;2023-02-22T12:50:14;14.80;99.90
7694;DHT22;3889;48.162;11.510;2023-02-22T12:52:50;14.80;99.90
7694;DHT22;3889;48.162;11.510;2023-02-22T12:55:22;14.70;99.90
7694;DHT22;3889;48.162;11.510;2023-02-22T12:57:55;14.70;99.90
7694;DHT22;3889;48.162;11.510;2023-02-22T13:00:27;14.60;99.90
7694;DHT22;3889;48.162;11.510;2023-02-22T13:03:00;14.60;99.90
7694;DHT22;3889;48.162;11.510;2023-02-22T13:05:32;14.70;99.90
7694;DHT22;3889;48.162;11.510;2023-02-22T13:08:18;14.80;99.90
7694;DHT22;3889;48.162;11.510;2023-02-22T13:11:06;14.90;99.90
7694;DHT22;3889;48.162;11.510;2023-02-22T13:13:38;14.90;99.90
7694;DHT22;3889;48.162;11.510;2023-02-22T13:16:17;14.90;99.90
7694;DHT22;3889;48.162;11.510;2023-02-22T13:18:53;15.00;99.90
7694;DHT22;3889;48.162;11.510;2023-02-22T13:21:30;15.00;99.90
7694;DHT22;3889;48.162;11.510;2023-02-22T13:24:07;15.00;99.90
7694;DHT22;3889;48.162;11.510;2023-02-22T13:26:46;15.00;99.90
7694;DHT22;3889;48.162;11.510;2023-02-22T13:29:17;15.00;99.90
7694;DHT22;3889;48.162;11.510;2023-02-22T13:32:00;15.00;99.90
7694;DHT22;3889;48.162;11.510;2023-02-22T13:35:00;15.00;99.90
7694;DHT22;3889;48.162;11.510;2023-02-22T13:37:45;15.00;99.90
7694;DHT22;3889;48.162;11.510;2023-02-22T13:40:24;15.00;99.90
7694;DHT22;3889;48.162;11.510;2023-02-22T13:43:17;15.10;99.90
7694;DHT22;3889;48.162;11.510;2023-02-22T13:49:06;15.30;99.90
7694;DHT22;3889;48.162;11.510;2023-02-22T13:51:45;15.40;99.90
7694;DHT22;3889;48.162;11.510;2023-02-22T13:54:19;15.40;99.90
7694;DHT22;3889;48.162;11.510;2023-02-22T13:56:50;15.40;99.90
7694;DHT22;3889;48.162;11.510;2023-02-22T13:59:28;15.50;99.90
7694;DHT22;3889;48.162;11.510;2023-02-22T14:01:57;15.60;99.90
7694;DHT22;3889;48.162;11.510;2023-02-22T14:04:43;15.70;99.90
7694;DHT22;3889;48.162;11.510;2023-02-22T14:10:45;15.70;99.90
7694;DHT22;3889;48.162;11.510;2023-02-22T14:13:16;15.60;99.90
7694;DHT22;3889;48.162;11.510;2023-02-22T14:16:16;15.60;99.90
7694;DHT22;3889;48.162;11.510;2023-02-22T14:18:47;15.50;99.90
7694;DHT22;3889;48.162;11.510;2023-02-22T14:21:17;15.50;99.90
7694;DHT22;3889;48.162;11.510;2023-02-22T14:23:46;15.50;99.90
7694;DHT22;3889;48.162;11.510;2023-02-22T14:26:17;15.50;99.90
7694;DHT22;3889;48.162;11.510;2023-02-22T14:28:52;15.50;99.90
7694;DHT22;3889;48.162;11.510;2023-02-22T14:31:23;15.60;99.90
7694;DHT22;3889;48.162;11.510;2023-02-22T14:34:07;15.50;99.90
7694;DHT22;3889;48.162;11.510;2023-02-22T14:36:49;15.40;99.90
7694;DHT22;3889;48.162;11.510;2023-02-22T14:39:22;15.10;99.90
7694;DHT22;3889;48.162;11.510;2023-02-22T14:41:56;15.00;99.90
7694;DHT22;3889;48.162;11.510;2023-02-22T14:44:32;14.70;99.90
7694;DHT22;3889;48.162;11.510;2023-02-22T14:47:04;14.70;99.90
7694;DHT22;3889;48.162;11.510;2023-02-22T14:49:35;14.70;99.90
7694;DHT22;3889;48.162;11.510;2023-02-22T14:52:14;14.60;99.90
7694;DHT22;3889;48.162;11.510;2023-02-22T14:55:06;14.60;99.90
7694;DHT22;3889;48.162;11.510;2023-02-22T14:57:46;14.50;99.90
7694;DHT22;3889;48.162;11.510;2023-02-22T15:00:22;14.50;99.90
7694;DHT22;3889;48.162;11.510;2023-02-22T15:02:58;14.50;99.90
7694;DHT22;3889;48.162;11.510;2023-02-22T15:05:27;14.40;99.90
7694;DHT22;3889;48.162;11.510;2023-02-22T15:07:58;14.40;99.90
7694;DHT22;3889;48.162;11.510;2023-02-22T15:10:28;14.30;99.90
7694;DHT22;3889;48.162;11.510;2023-02-22T15:12:59;14.30;99.90
7694;DHT22;3889;48.162;11.510;2023-02-22T15:15:39;14.30;99.90
7694;DHT22;3889;48.162;11.510;2023-02-22T15:18:25;14.20;99.90
7694;DHT22;3889;48.162;11.510;2023-02-22T15:20:57;14.30;99.80
7694;DHT22;3889;48.162;11.510;2023-02-22T15:23:27;14.40;99.10
7694;DHT22;3889;48.162;11.510;2023-02-22T15:25:59;14.40;99.20
7694;DHT22;3889;48.162;11.510;2023-02-22T15:28:28;14.30;99.00
7694;DHT22;3889;48.162;11.510;2023-02-22T15:31:23;14.30;98.90
7694;DHT22;3889;48.162;11.510;2023-02-22T15:33:51;14.30;98.90
7694;DHT22;3889;48.162;11.510;2023-02-22T15:36:24;14.20;98.80
7694;DHT22;3889;48.162;11.510;2023-02-22T15:38:53;14.10;99.10
7694;DHT22;3889;48.162;11.510;2023-02-22T15:41:27;14.10;99.00
7694;DHT22;3889;48.162;11.510;2023-02-22T15:44:00;14.10;99.00
7694;DHT22;3889;48.162;11.510;2023-02-22T15:46:49;14.00;98.90
7694;DHT22;3889;48.162;11.510;2023-02-22T15:49:22;13.90;99.10
7694;DHT22;3889;48.162;11.510;2023-02-22T15:52:05;13.80;99.50
7694;DHT22;3889;48.162;11.510;2023-02-22T15:54:42;13.70;99.30
7694;DHT22;3889;48.162;11.510;2023-02-22T15:57:14;13.70;98.80
7694;DHT22;3889;48.162;11.510;2023-02-22T15:59:46;13.60;99.00
7694;DHT22;3889;48.162;11.510;2023-02-22T16:02:30;13.60;99.20
7694;DHT22;3889;48.162;11.510;2023-02-22T16:05:02;13.50;99.20
7694;DHT22;3889;48.162;11.510;2023-02-22T16:07:34;13.50;99.30
7694;DHT22;3889;48.162;11.510;2023-02-22T16:10:06;13.30;99.90
7694;DHT22;3889;48.162;11.510;2023-02-22T16:12:35;13.10;99.90
7694;DHT22;3889;48.162;11.510;2023-02-22T16:15:14;13.00;99.90
7694;DHT22;3889;48.162;11.510;2023-02-22T16:17:44;12.90;99.90
7694;DHT22;3889;48.162;11.510;2023-02-22T16:20:32;12.80;99.90
7694;DHT22;3889;48.162;11.510;2023-02-22T16:23:21;12.70;99.90
7694;DHT22;3889;48.162;11.510;2023-02-22T16:26:04;12.60;99.90
7694;DHT22;3889;48.162;11.510;2023-02-22T16:28:33;12.50;99.90
7694;DHT22;3889;48.162;11.510;2023-02-22T16:31:02;12.50;99.90
7694;DHT22;3889;48.162;11.510;2023-02-22T16:33:31;12.40;99.90
7694;DHT22;3889;48.162;11.510;2023-02-22T16:36:05;12.30;99.90
7694;DHT22;3889;48.162;11.510;2023-02-22T16:38:33;12.10;99.90
7694;DHT22;3889;48.162;11.510;2023-02-22T16:41:04;11.90;99.90
7694;DHT22;3889;48.162;11.510;2023-02-22T16:43:33;11.70;99.90